sensor_id;sensor_type;location;lat;lon;timestamp;P1;durP1;ratioP1;P2;durP2;ratioP2
18867;SDS011;9563;49.240;9.088;2023-04-25T05:00:54;9.87;;;6.30;;
18867;SDS011;9563;49.240;9.088;2023-04-25T05:03:21;11.80;;;6.20;;
18867;SDS011;9563;49.240;9.088;2023-04-25T05:05:48;10.40;;;6.53;;
18867;SDS011;9563;49.240;9.088;2023-04-25T05:08:14;12.00;;;7.30;;
18867;SDS011;9563;49.240;9.088;2023-04-25T05:10:41;12.40;;;7.03;;
18867;SDS011;9563;49.240;9.088;2023-04-25T05:13:08;10.30;;;6.83;;
18867;SDS011;9563;49.240;9.088;2023-04-25T05:15:35;10.73;;;6.40;;
18867;SDS011;9563;49.240;9.088;2023-04-25T05:18:03;14.60;;;7.63;;
18867;SDS011;9563;49.240;9.088;2023-04-25T05:20:30;10.80;;;7.33;;
18867;SDS011;9563;49.240;9.088;2023-04-25T05:22:57;10.67;;;7.00;;
18867;SDS011;9563;49.240;9.088;2023-04-25T05:25:25;11.77;;;5.97;;
18867;SDS011;9563;49.240;9.088;2023-04-25T05:27:52;10.70;;;6.50;;
18867;SDS011;9563;49.240;9.088;2023-04-25T05:30:19;12.20;;;7.43;;
18867;SDS011;9563;49.240;9.088;2023-04-25T05:32:45;12.70;;;7.97;;
18867;SDS011;9563;49.240;9.088;2023-04-25T05:35:14;10.50;;;7.00;;
18867;SDS011;9563;49.240;9.088;2023-04-25T05:37:41;15.13;;;7.57;;
18867;SDS011;9563;49.240;9.088;2023-04-25T05:40:08;10.57;;;7.17;;
18867;SDS011;9563;49.240;9.088;2023-04-25T05:42:35;10.70;;;7.43;;
18867;SDS011;9563;49.240;9.088;2023-04-25T05:45:03;11.67;;;7.07;;
18867;SDS011;9563;49.240;9.088;2023-04-25T05:47:30;13.23;;;7.83;;
18867;SDS011;9563;49.240;9.088;2023-04-25T05:49:57;11.67;;;7.93;;
18867;SDS011;9563;49.240;9.088;2023-04-25T05:52:25;13.20;;;7.60;;
18867;SDS011;9563;49.240;9.088;2023-04-25T05:54:52;10.77;;;7.53;;
18867;SDS011;9563;49.240;9.088;2023-04-25T05:57:20;10.97;;;7.03;;
18867;SDS011;9563;49.240;9.088;2023-04-25T05:59:47;10.43;;;7.10;;
18867;SDS011;9563;49.240;9.088;2023-04-25T06:02:14;11.30;;;7.50;;
18867;SDS011;9563;49.240;9.088;2023-04-25T06:04:41;9.80;;;7.03;;
18867;SDS011;9563;49.240;9.088;2023-04-25T06:07:08;12.33;;;7.60;;
18867;SDS011;9563;49.240;9.088;2023-04-25T06:09:36;10.63;;;6.83;;
18867;SDS011;9563;49.240;9.088;2023-04-25T06:12:04;11.17;;;7.03;;
18867;SDS011;9563;49.240;9.088;2023-04-25T06:14:31;11.00;;;7.30;;
18867;SDS011;9563;49.240;9.088;2023-04-25T06:16:58;10.33;;;7.10;;
18867;SDS011;9563;49.240;9.088;2023-04-25T06:19:31;10.90;;;7.67;;
18867;SDS011;9563;49.240;9.088;2023-04-25T06:21:58;11.47;;;7.27;;
18867;SDS011;9563;49.240;9.088;2023-04-25T06:24:25;13.93;;;8.57;;
18867;SDS011;9563;49.240;9.088;2023-04-25T06:26:53;12.07;;;7.23;;
18867;SDS011;9563;49.240;9.088;2023-04-25T06:29:20;13.80;;;8.30;;
18867;SDS011;9563;49.240;9.088;2023-04-25T06:31:47;11.53;;;8.40;;
18867;SDS011;9563;49.240;9.088;2023-04-25T06:34:14;12.47;;;8.27;;
18867;SDS011;9563;49.240;9.088;2023-04-25T06:36:42;13.43;;;8.63;;
18867;SDS011;9563;49.240;9.088;2023-04-25T06:39:09;14.13;;;8.77;;
18867;SDS011;9563;49.240;9.088;2023-04-25T06:41:36;13.43;;;8.10;;
18867;SDS011;9563;49.240;9.088;2023-04-25T06:44:04;13.33;;;8.00;;
18867;SDS011;9563;49.240;9.088;2023-04-25T06:46:31;11.93;;;7.97;;
18867;SDS011;9563;49.240;9.088;2023-04-25T06:48:58;14.13;;;8.20;;
18867;SDS011;9563;49.240;9.088;2023-04-25T06:51:25;12.67;;;8.60;;
18867;SDS011;9563;49.240;9.088;2023-04-25T06:53:54;12.07;;;7.97;;
18867;SDS011;9563;49.240;9.088;2023-04-25T06:56:21;11.80;;;7.83;;
18867;SDS011;9563;49.240;9.088;2023-04-25T06:58:48;12.50;;;8.07;;
18867;SDS011;9563;49.240;9.088;2023-04-25T07:01:16;13.30;;;7.97;;
18867;SDS011;9563;49.240;9.088;2023-04-25T07:03:43;9.17;;;6.73;;
18867;SDS011;9563;49.240;9.088;2023-04-25T07:06:10;11.77;;;8.07;;
18867;SDS011;9563;49.240;9.088;2023-04-25T07:08:36;12.87;;;8.37;;
18867;SDS011;9563;49.240;9.088;2023-04-25T07:11:03;10.57;;;7.20;;
18867;SDS011;9563;49.240;9.088;2023-04-25T07:13:30;12.80;;;7.37;;
18867;SDS011;9563;49.240;9.088;2023-04-25T07:15:57;11.33;;;7.37;;
18867;SDS011;9563;49.240;9.088;2023-04-25T07:18:25;12.87;;;7.27;;
18867;SDS011;9563;49.240;9.088;2023-04-25T07:20:52;12.13;;;7.87;;
18867;SDS011;9563;49.240;9.088;2023-04-25T07:23:19;13.03;;;7.83;;
18867;SDS011;9563;49.240;9.088;2023-04-25T07:25:46;11.63;;;7.47;;
18867;SDS011;9563;49.240;9.088;2023-04-25T07:28:12;10.30;;;7.37;;
18867;SDS011;9563;49.240;9.088;2023-04-25T07:30:40;13.43;;;8.50;;
18867;SDS011;9563;49.240;9.088;2023-04-25T07:33:06;12.77;;;7.70;;
18867;SDS011;9563;49.240;9.088;2023-04-25T07:35:35;11.60;;;7.57;;
18867;SDS011;9563;49.240;9.088;2023-04-25T07:38:01;11.83;;;7.63;;
18867;SDS011;9563;49.240;9.088;2023-04-25T07:40:28;12.43;;;8.20;;
18867;SDS011;9563;49.240;9.088;2023-04-25T07:42:56;11.47;;;7.43;;
18867;SDS011;9563;49.240;9.088;2023-04-25T07:45:23;10.40;;;7.43;;
18867;SDS011;9563;49.240;9.088;2023-04-25T07:47:49;14.57;;;9.30;;
18867;SDS011;9563;49.240;9.088;2023-04-25T07:50:16;13.23;;;7.97;;
18867;SDS011;9563;49.240;9.088;2023-04-25T07:52:45;11.80;;;7.67;;
18867;SDS011;9563;49.240;9.088;2023-04-25T07:55:11;12.33;;;7.30;;
18867;SDS011;9563;49.240;9.088;2023-04-25T07:57:38;11.47;;;7.23;;
18867;SDS011;9563;49.240;9.088;2023-04-25T08:00:06;12.27;;;7.97;;
18867;SDS011;9563;49.240;9.088;2023-04-25T08:02:34;11.50;;;7.23;;
18867;SDS011;9563;49.240;9.088;2023-04-25T08:05:01;11.07;;;7.20;;
18867;SDS011;9563;49.240;9.088;2023-04-25T08:07:28;12.93;;;8.03;;
18867;SDS011;9563;49.240;9.088;2023-04-25T08:09:57;17.93;;;9.20;;
18867;SDS011;9563;49.240;9.088;2023-04-25T08:12:23;15.55;;;8.15;;
18867;SDS011;9563;49.240;9.088;2023-04-25T08:14:51;12.00;;;7.38;;
18867;SDS011;9563;49.240;9.088;2023-04-25T08:17:18;12.40;;;7.03;;
18867;SDS011;9563;49.240;9.088;2023-04-25T08:19:45;12.47;;;6.90;;
18867;SDS011;9563;49.240;9.088;2023-04-25T08:22:12;11.60;;;7.53;;
18867;SDS011;9563;49.240;9.088;2023-04-25T08:24:39;12.45;;;7.38;;
18867;SDS011;9563;49.240;9.088;2023-04-25T08:27:07;11.30;;;7.80;;
18867;SDS011;9563;49.240;9.088;2023-04-25T08:29:34;11.40;;;7.97;;
18867;SDS011;9563;49.240;9.088;2023-04-25T08:32:01;12.75;;;7.50;;
18867;SDS011;9563;49.240;9.088;2023-04-25T08:34:28;11.07;;;7.80;;
18867;SDS011;9563;49.240;9.088;2023-04-25T08:36:55;14.50;;;7.93;;
18867;SDS011;9563;49.240;9.088;2023-04-25T08:39:22;13.88;;;8.88;;
18867;SDS011;9563;49.240;9.088;2023-04-25T08:41:48;12.60;;;7.53;;
18867;SDS011;9563;49.240;9.088;2023-04-25T08:44:19;14.47;;;8.47;;
18867;SDS011;9563;49.240;9.088;2023-04-25T08:46:46;16.23;;;8.57;;
18867;SDS011;9563;49.240;9.088;2023-04-25T08:49:15;14.17;;;8.10;;
18867;SDS011;9563;49.240;9.088;2023-04-25T08:51:44;13.63;;;8.53;;
18867;SDS011;9563;49.240;9.088;2023-04-25T08:54:13;15.15;;;8.57;;
18867;SDS011;9563;49.240;9.088;2023-04-25T08:56:41;12.48;;;7.93;;
18867;SDS011;9563;49.240;9.088;2023-04-25T08:59:11;12.50;;;7.70;;
18867;SDS011;9563;49.240;9.088;2023-04-25T09:01:40;14.60;;;7.75;;
18867;SDS011;9563;49.240;9.088;2023-04-25T09:04:06;12.80;;;7.07;;
18867;SDS011;9563;49.240;9.088;2023-04-25T09:06:33;11.90;;;7.25;;
18867;SDS011;9563;49.240;9.088;2023-04-25T09:09:04;11.77;;;6.63;;
18867;SDS011;9563;49.240;9.088;2023-04-25T09:11:32;11.77;;;6.23;;
18867;SDS011;9563;49.240;9.088;2023-04-25T09:14:10;13.73;;;7.10;;
18867;SDS011;9563;49.240;9.088;2023-04-25T09:19:28;13.68;;;6.55;;
18867;SDS011;9563;49.240;9.088;2023-04-25T09:21:57;14.87;;;5.90;;
18867;SDS011;9563;49.240;9.088;2023-04-25T09:24:32;12.00;;;5.97;;
18867;SDS011;9563;49.240;9.088;2023-04-25T09:27:03;14.40;;;6.17;;
18867;SDS011;9563;49.240;9.088;2023-04-25T09:29:31;10.03;;;5.60;;
18867;SDS011;9563;49.240;9.088;2023-04-25T09:32:18;9.88;;;5.55;;
18867;SDS011;9563;49.240;9.088;2023-04-25T09:34:46;7.00;;;5.10;;
18867;SDS011;9563;49.240;9.088;2023-04-25T09:37:17;9.15;;;5.15;;
18867;SDS011;9563;49.240;9.088;2023-04-25T09:39:45;9.95;;;4.95;;
18867;SDS011;9563;49.240;9.088;2023-04-25T09:42:13;12.75;;;5.53;;
18867;SDS011;9563;49.240;9.088;2023-04-25T09:44:42;7.90;;;5.43;;
18867;SDS011;9563;49.240;9.088;2023-04-25T09:47:10;9.93;;;4.90;;
18867;SDS011;9563;49.240;9.088;2023-04-25T09:49:40;8.20;;;4.90;;
18867;SDS011;9563;49.240;9.088;2023-04-25T09:52:08;9.13;;;5.28;;
18867;SDS011;9563;49.240;9.088;2023-04-25T09:54:35;13.20;;;5.47;;
18867;SDS011;9563;49.240;9.088;2023-04-25T09:57:05;7.85;;;4.78;;
18867;SDS011;9563;49.240;9.088;2023-04-25T09:59:38;8.83;;;5.30;;
18867;SDS011;9563;49.240;9.088;2023-04-25T10:02:08;9.45;;;4.93;;
18867;SDS011;9563;49.240;9.088;2023-04-25T10:04:36;10.23;;;5.03;;
18867;SDS011;9563;49.240;9.088;2023-04-25T10:07:06;10.18;;;5.13;;
18867;SDS011;9563;49.240;9.088;2023-04-25T10:09:36;12.40;;;5.90;;
18867;SDS011;9563;49.240;9.088;2023-04-25T10:12:04;8.45;;;4.55;;
18867;SDS011;9563;49.240;9.088;2023-04-25T10:14:32;6.85;;;4.05;;
18867;SDS011;9563;49.240;9.088;2023-04-25T10:17:00;8.63;;;3.92;;
18867;SDS011;9563;49.240;9.088;2023-04-25T10:19:27;7.03;;;4.30;;
18867;SDS011;9563;49.240;9.088;2023-04-25T10:21:55;7.35;;;4.18;;
18867;SDS011;9563;49.240;9.088;2023-04-25T10:24:30;10.43;;;3.90;;
18867;SDS011;9563;49.240;9.088;2023-04-25T10:26:58;7.90;;;3.88;;
18867;SDS011;9563;49.240;9.088;2023-04-25T10:29:26;5.88;;;3.30;;
18867;SDS011;9563;49.240;9.088;2023-04-25T10:31:53;11.50;;;4.38;;
18867;SDS011;9563;49.240;9.088;2023-04-25T10:34:23;7.25;;;3.13;;
18867;SDS011;9563;49.240;9.088;2023-04-25T10:36:52;6.60;;;3.28;;
18867;SDS011;9563;49.240;9.088;2023-04-25T10:39:23;5.43;;;3.60;;
18867;SDS011;9563;49.240;9.088;2023-04-25T10:41:55;6.80;;;3.75;;
18867;SDS011;9563;49.240;9.088;2023-04-25T10:44:26;6.90;;;3.58;;
18867;SDS011;9563;49.240;9.088;2023-04-25T10:46:54;7.30;;;3.35;;
18867;SDS011;9563;49.240;9.088;2023-04-25T10:49:29;5.00;;;2.88;;
18867;SDS011;9563;49.240;9.088;2023-04-25T10:54:40;8.23;;;3.45;;
18867;SDS011;9563;49.240;9.088;2023-04-25T10:59:59;5.60;;;2.63;;
18867;SDS011;9563;49.240;9.088;2023-04-25T11:02:30;8.90;;;2.88;;
18867;SDS011;9563;49.240;9.088;2023-04-25T11:04:57;8.50;;;3.28;;
18867;SDS011;9563;49.240;9.088;2023-04-25T11:07:26;9.43;;;3.13;;
18867;SDS011;9563;49.240;9.088;2023-04-25T11:10:01;6.50;;;2.88;;
18867;SDS011;9563;49.240;9.088;2023-04-25T11:12:31;5.90;;;2.95;;
18867;SDS011;9563;49.240;9.088;2023-04-25T11:14:59;6.97;;;2.72;;
18867;SDS011;9563;49.240;9.088;2023-04-25T11:17:27;8.40;;;3.20;;
18867;SDS011;9563;49.240;9.088;2023-04-25T11:19:54;6.05;;;3.47;;
18867;SDS011;9563;49.240;9.088;2023-04-25T11:22:22;8.77;;;3.03;;
18867;SDS011;9563;49.240;9.088;2023-04-25T11:24:49;10.35;;;3.65;;
18867;SDS011;9563;49.240;9.088;2023-04-25T11:27:16;6.00;;;2.88;;
18867;SDS011;9563;49.240;9.088;2023-04-25T11:29:45;7.35;;;3.25;;
18867;SDS011;9563;49.240;9.088;2023-04-25T11:32:14;6.40;;;3.10;;
18867;SDS011;9563;49.240;9.088;2023-04-25T11:34:43;9.40;;;3.20;;
18867;SDS011;9563;49.240;9.088;2023-04-25T11:37:11;8.13;;;3.40;;
18867;SDS011;9563;49.240;9.088;2023-04-25T11:39:39;18.25;;;5.15;;
18867;SDS011;9563;49.240;9.088;2023-04-25T11:42:11;6.68;;;3.75;;
18867;SDS011;9563;49.240;9.088;2023-04-25T11:44:38;10.38;;;4.68;;
18867;SDS011;9563;49.240;9.088;2023-04-25T11:47:07;12.48;;;4.35;;
18867;SDS011;9563;49.240;9.088;2023-04-25T11:49:35;11.93;;;4.28;;
18867;SDS011;9563;49.240;9.088;2023-04-25T11:52:02;8.35;;;4.50;;
18867;SDS011;9563;49.240;9.088;2023-04-25T11:54:29;14.07;;;4.18;;
18867;SDS011;9563;49.240;9.088;2023-04-25T11:56:56;11.45;;;4.57;;
18867;SDS011;9563;49.240;9.088;2023-04-25T11:59:23;6.93;;;3.50;;
18867;SDS011;9563;49.240;9.088;2023-04-25T12:01:51;9.15;;;4.50;;
18867;SDS011;9563;49.240;9.088;2023-04-25T12:04:21;11.80;;;4.57;;
18867;SDS011;9563;49.240;9.088;2023-04-25T12:06:50;9.52;;;3.50;;
18867;SDS011;9563;49.240;9.088;2023-04-25T12:09:20;6.75;;;3.55;;
18867;SDS011;9563;49.240;9.088;2023-04-25T12:11:55;8.60;;;3.67;;
18867;SDS011;9563;49.240;9.088;2023-04-25T12:14:24;7.53;;;3.60;;
18867;SDS011;9563;49.240;9.088;2023-04-25T12:16:52;11.40;;;3.92;;
18867;SDS011;9563;49.240;9.088;2023-04-25T12:19:22;8.65;;;3.95;;
18867;SDS011;9563;49.240;9.088;2023-04-25T12:21:49;10.40;;;4.68;;
18867;SDS011;9563;49.240;9.088;2023-04-25T12:24:17;10.52;;;4.68;;
18867;SDS011;9563;49.240;9.088;2023-04-25T12:26:48;17.50;;;4.65;;
18867;SDS011;9563;49.240;9.088;2023-04-25T12:29:20;8.75;;;4.07;;
18867;SDS011;9563;49.240;9.088;2023-04-25T12:31:48;13.32;;;4.80;;
18867;SDS011;9563;49.240;9.088;2023-04-25T12:34:16;15.27;;;4.68;;
18867;SDS011;9563;49.240;9.088;2023-04-25T12:36:44;11.32;;;5.32;;
18867;SDS011;9563;49.240;9.088;2023-04-25T12:39:15;12.98;;;5.15;;
18867;SDS011;9563;49.240;9.088;2023-04-25T12:41:42;14.25;;;5.65;;
18867;SDS011;9563;49.240;9.088;2023-04-25T12:44:09;13.73;;;4.93;;
18867;SDS011;9563;49.240;9.088;2023-04-25T12:46:36;12.27;;;4.90;;
18867;SDS011;9563;49.240;9.088;2023-04-25T12:49:03;13.68;;;5.85;;
18867;SDS011;9563;49.240;9.088;2023-04-25T12:51:31;10.48;;;5.03;;
18867;SDS011;9563;49.240;9.088;2023-04-25T12:53:59;10.80;;;5.10;;
18867;SDS011;9563;49.240;9.088;2023-04-25T12:56:26;10.00;;;4.40;;
18867;SDS011;9563;49.240;9.088;2023-04-25T12:58:53;8.45;;;4.18;;
18867;SDS011;9563;49.240;9.088;2023-04-25T13:01:20;13.77;;;4.72;;
18867;SDS011;9563;49.240;9.088;2023-04-25T13:03:48;6.97;;;3.55;;
18867;SDS011;9563;49.240;9.088;2023-04-25T13:06:15;7.75;;;3.53;;
18867;SDS011;9563;49.240;9.088;2023-04-25T13:08:42;9.55;;;3.58;;
18867;SDS011;9563;49.240;9.088;2023-04-25T13:11:10;5.40;;;3.28;;
18867;SDS011;9563;49.240;9.088;2023-04-25T13:13:37;5.30;;;3.15;;
18867;SDS011;9563;49.240;9.088;2023-04-25T13:16:05;8.73;;;3.38;;
18867;SDS011;9563;49.240;9.088;2023-04-25T13:18:33;2.22;;;2.00;;
18867;SDS011;9563;49.240;9.088;2023-04-25T13:21:00;3.92;;;2.05;;
18867;SDS011;9563;49.240;9.088;2023-04-25T13:23:27;3.08;;;1.60;;
18867;SDS011;9563;49.240;9.088;2023-04-25T13:25:55;2.92;;;1.48;;
18867;SDS011;9563;49.240;9.088;2023-04-25T13:28:25;2.22;;;1.60;;
18867;SDS011;9563;49.240;9.088;2023-04-25T13:30:51;3.05;;;1.50;;
18867;SDS011;9563;49.240;9.088;2023-04-25T13:33:19;5.75;;;2.38;;
18867;SDS011;9563;49.240;9.088;2023-04-25T13:35:46;6.13;;;2.53;;
18867;SDS011;9563;49.240;9.088;2023-04-25T13:38:19;3.45;;;2.30;;
18867;SDS011;9563;49.240;9.088;2023-04-25T13:40:47;4.80;;;2.03;;
18867;SDS011;9563;49.240;9.088;2023-04-25T13:43:14;2.70;;;2.25;;
18867;SDS011;9563;49.240;9.088;2023-04-25T13:45:43;6.10;;;2.55;;
18867;SDS011;9563;49.240;9.088;2023-04-25T13:48:09;5.72;;;2.95;;
18867;SDS011;9563;49.240;9.088;2023-04-25T13:50:36;5.22;;;2.70;;
18867;SDS011;9563;49.240;9.088;2023-04-25T13:53:03;5.07;;;2.70;;
18867;SDS011;9563;49.240;9.088;2023-04-25T13:55:30;9.13;;;3.22;;
18867;SDS011;9563;49.240;9.088;2023-04-25T13:57:57;4.15;;;2.72;;
18867;SDS011;9563;49.240;9.088;2023-04-25T14:00:24;4.07;;;2.35;;
18867;SDS011;9563;49.240;9.088;2023-04-25T14:02:52;6.18;;;2.75;;
18867;SDS011;9563;49.240;9.088;2023-04-25T14:05:20;6.38;;;3.20;;
18867;SDS011;9563;49.240;9.088;2023-04-25T14:07:47;4.50;;;2.50;;
18867;SDS011;9563;49.240;9.088;2023-04-25T14:10:15;5.00;;;2.85;;
18867;SDS011;9563;49.240;9.088;2023-04-25T14:12:50;5.15;;;2.92;;
18867;SDS011;9563;49.240;9.088;2023-04-25T14:15:17;5.75;;;2.92;;
18867;SDS011;9563;49.240;9.088;2023-04-25T14:17:43;4.32;;;2.63;;
18867;SDS011;9563;49.240;9.088;2023-04-25T14:20:13;9.75;;;2.80;;
18867;SDS011;9563;49.240;9.088;2023-04-25T14:22:40;7.57;;;2.40;;
18867;SDS011;9563;49.240;9.088;2023-04-25T14:25:08;5.80;;;2.55;;
18867;SDS011;9563;49.240;9.088;2023-04-25T14:27:35;6.95;;;2.15;;
18867;SDS011;9563;49.240;9.088;2023-04-25T14:30:05;5.65;;;2.50;;
18867;SDS011;9563;49.240;9.088;2023-04-25T14:32:34;4.90;;;2.95;;
18867;SDS011;9563;49.240;9.088;2023-04-25T14:35:01;9.40;;;3.50;;
18867;SDS011;9563;49.240;9.088;2023-04-25T14:37:28;4.88;;;3.05;;
18867;SDS011;9563;49.240;9.088;2023-04-25T14:39:55;5.10;;;3.00;;
18867;SDS011;9563;49.240;9.088;2023-04-25T14:42:21;5.90;;;2.55;;
18867;SDS011;9563;49.240;9.088;2023-04-25T14:44:48;4.05;;;2.45;;
18867;SDS011;9563;49.240;9.088;2023-04-25T14:47:17;6.30;;;3.10;;
18867;SDS011;9563;49.240;9.088;2023-04-25T14:49:44;7.75;;;2.72;;
18867;SDS011;9563;49.240;9.088;2023-04-25T14:52:16;6.38;;;2.95;;
18867;SDS011;9563;49.240;9.088;2023-04-25T14:54:42;3.72;;;2.30;;
18867;SDS011;9563;49.240;9.088;2023-04-25T14:57:09;6.70;;;2.63;;
18867;SDS011;9563;49.240;9.088;2023-04-25T14:59:36;6.68;;;2.55;;
18867;SDS011;9563;49.240;9.088;2023-04-25T15:02:03;5.85;;;2.67;;
18867;SDS011;9563;49.240;9.088;2023-04-25T15:04:32;4.07;;;2.40;;
18867;SDS011;9563;49.240;9.088;2023-04-25T15:06:59;8.50;;;2.80;;
18867;SDS011;9563;49.240;9.088;2023-04-25T15:09:26;6.43;;;2.42;;
18867;SDS011;9563;49.240;9.088;2023-04-25T15:11:53;5.22;;;3.25;;
18867;SDS011;9563;49.240;9.088;2023-04-25T15:14:20;6.28;;;2.35;;
18867;SDS011;9563;49.240;9.088;2023-04-25T15:16:47;8.85;;;3.20;;
18867;SDS011;9563;49.240;9.088;2023-04-25T15:19:14;5.63;;;2.88;;
18867;SDS011;9563;49.240;9.088;2023-04-25T15:21:42;7.70;;;2.72;;
18867;SDS011;9563;49.240;9.088;2023-04-25T15:24:09;4.68;;;2.85;;
18867;SDS011;9563;49.240;9.088;2023-04-25T15:26:37;5.50;;;2.95;;
18867;SDS011;9563;49.240;9.088;2023-04-25T15:29:04;5.65;;;3.33;;
18867;SDS011;9563;49.240;9.088;2023-04-25T15:31:31;12.02;;;3.90;;
18867;SDS011;9563;49.240;9.088;2023-04-25T15:33:58;4.07;;;2.70;;
18867;SDS011;9563;49.240;9.088;2023-04-25T15:36:25;7.97;;;2.90;;
18867;SDS011;9563;49.240;9.088;2023-04-25T15:38:53;4.20;;;2.90;;
18867;SDS011;9563;49.240;9.088;2023-04-25T15:41:20;6.72;;;3.45;;
18867;SDS011;9563;49.240;9.088;2023-04-25T15:43:47;6.07;;;2.60;;
18867;SDS011;9563;49.240;9.088;2023-04-25T15:46:14;6.68;;;3.40;;
18867;SDS011;9563;49.240;9.088;2023-04-25T15:48:41;5.75;;;2.72;;
18867;SDS011;9563;49.240;9.088;2023-04-25T15:51:08;5.15;;;2.60;;
18867;SDS011;9563;49.240;9.088;2023-04-25T15:53:35;5.75;;;2.58;;
18867;SDS011;9563;49.240;9.088;2023-04-25T15:56:04;8.70;;;2.83;;
18867;SDS011;9563;49.240;9.088;2023-04-25T15:58:31;4.47;;;2.60;;
18867;SDS011;9563;49.240;9.088;2023-04-25T16:00:58;8.40;;;3.38;;
18867;SDS011;9563;49.240;9.088;2023-04-25T16:03:25;6.30;;;2.67;;
18867;SDS011;9563;49.240;9.088;2023-04-25T16:05:52;5.85;;;2.85;;
18867;SDS011;9563;49.240;9.088;2023-04-25T16:08:19;8.18;;;2.90;;
18867;SDS011;9563;49.240;9.088;2023-04-25T16:10:46;5.45;;;2.63;;
18867;SDS011;9563;49.240;9.088;2023-04-25T16:13:14;8.20;;;2.78;;
18867;SDS011;9563;49.240;9.088;2023-04-25T16:15:41;4.15;;;2.55;;
18867;SDS011;9563;49.240;9.088;2023-04-25T16:18:08;6.80;;;3.42;;
18867;SDS011;9563;49.240;9.088;2023-04-25T16:20:35;8.90;;;2.88;;
18867;SDS011;9563;49.240;9.088;2023-04-25T16:23:02;5.82;;;3.33;;
18867;SDS011;9563;49.240;9.088;2023-04-25T16:25:29;7.82;;;3.70;;
18867;SDS011;9563;49.240;9.088;2023-04-25T16:27:55;6.68;;;3.35;;
18867;SDS011;9563;49.240;9.088;2023-04-25T16:30:24;10.70;;;3.20;;
18867;SDS011;9563;49.240;9.088;2023-04-25T16:32:51;7.63;;;3.55;;
18867;SDS011;9563;49.240;9.088;2023-04-25T16:35:21;5.47;;;2.80;;
18867;SDS011;9563;49.240;9.088;2023-04-25T16:37:48;8.48;;;3.35;;
18867;SDS011;9563;49.240;9.088;2023-04-25T16:40:15;5.75;;;2.75;;
18867;SDS011;9563;49.240;9.088;2023-04-25T16:42:42;7.45;;;2.83;;
18867;SDS011;9563;49.240;9.088;2023-04-25T16:45:09;5.70;;;2.72;;
18867;SDS011;9563;49.240;9.088;2023-04-25T16:47:39;8.25;;;3.63;;
18867;SDS011;9563;49.240;9.088;2023-04-25T16:50:06;6.43;;;2.70;;
18867;SDS011;9563;49.240;9.088;2023-04-25T16:52:34;6.50;;;3.15;;
18867;SDS011;9563;49.240;9.088;2023-04-25T16:55:01;7.95;;;3.70;;
18867;SDS011;9563;49.240;9.088;2023-04-25T16:57:28;7.22;;;3.42;;
18867;SDS011;9563;49.240;9.088;2023-04-25T16:59:55;5.85;;;3.45;;
18867;SDS011;9563;49.240;9.088;2023-04-25T17:02:22;5.82;;;3.30;;
18867;SDS011;9563;49.240;9.088;2023-04-25T17:04:50;7.13;;;3.03;;
18867;SDS011;9563;49.240;9.088;2023-04-25T17:07:17;8.38;;;3.53;;
18867;SDS011;9563;49.240;9.088;2023-04-25T17:09:48;10.93;;;5.45;;
18867;SDS011;9563;49.240;9.088;2023-04-25T17:12:15;14.30;;;6.35;;
18867;SDS011;9563;49.240;9.088;2023-04-25T17:14:43;8.50;;;3.58;;
18867;SDS011;9563;49.240;9.088;2023-04-25T17:17:10;11.45;;;3.25;;
18867;SDS011;9563;49.240;9.088;2023-04-25T17:19:37;5.70;;;2.38;;
18867;SDS011;9563;49.240;9.088;2023-04-25T17:22:05;6.30;;;2.90;;
18867;SDS011;9563;49.240;9.088;2023-04-25T17:24:32;4.18;;;2.50;;
18867;SDS011;9563;49.240;9.088;2023-04-25T17:26:59;6.32;;;2.70;;
18867;SDS011;9563;49.240;9.088;2023-04-25T17:29:26;7.38;;;2.70;;
18867;SDS011;9563;49.240;9.088;2023-04-25T17:31:53;9.35;;;3.08;;
18867;SDS011;9563;49.240;9.088;2023-04-25T17:34:21;9.60;;;3.45;;
18867;SDS011;9563;49.240;9.088;2023-04-25T17:36:47;5.75;;;2.53;;
18867;SDS011;9563;49.240;9.088;2023-04-25T17:39:16;6.82;;;3.20;;
18867;SDS011;9563;49.240;9.088;2023-04-25T17:41:44;6.18;;;2.45;;
18867;SDS011;9563;49.240;9.088;2023-04-25T17:44:11;9.48;;;2.80;;
18867;SDS011;9563;49.240;9.088;2023-04-25T17:46:38;6.32;;;2.50;;
18867;SDS011;9563;49.240;9.088;2023-04-25T17:49:05;4.88;;;2.20;;
18867;SDS011;9563;49.240;9.088;2023-04-25T17:51:32;4.85;;;2.40;;
18867;SDS011;9563;49.240;9.088;2023-04-25T17:53:59;10.45;;;2.38;;
18867;SDS011;9563;49.240;9.088;2023-04-25T17:56:27;5.35;;;2.17;;
18867;SDS011;9563;49.240;9.088;2023-04-25T17:58:54;8.38;;;2.40;;
18867;SDS011;9563;49.240;9.088;2023-04-25T18:01:21;7.88;;;2.65;;
18867;SDS011;9563;49.240;9.088;2023-04-25T18:03:48;8.00;;;2.53;;
18867;SDS011;9563;49.240;9.088;2023-04-25T18:06:16;5.88;;;2.20;;
18867;SDS011;9563;49.240;9.088;2023-04-25T18:08:43;5.15;;;2.22;;
18867;SDS011;9563;49.240;9.088;2023-04-25T18:11:10;5.32;;;2.92;;
18867;SDS011;9563;49.240;9.088;2023-04-25T18:13:38;5.80;;;2.60;;
18867;SDS011;9563;49.240;9.088;2023-04-25T18:16:05;7.70;;;2.60;;
18867;SDS011;9563;49.240;9.088;2023-04-25T18:18:32;4.72;;;2.53;;
18867;SDS011;9563;49.240;9.088;2023-04-25T18:21:00;4.82;;;2.53;;
18867;SDS011;9563;49.240;9.088;2023-04-25T18:23:31;5.65;;;2.20;;
18867;SDS011;9563;49.240;9.088;2023-04-25T18:25:58;5.70;;;2.65;;
18867;SDS011;9563;49.240;9.088;2023-04-25T18:28:25;3.50;;;2.13;;
18867;SDS011;9563;49.240;9.088;2023-04-25T18:30:53;11.90;;;2.77;;
18867;SDS011;9563;49.240;9.088;2023-04-25T18:33:20;4.75;;;2.47;;
18867;SDS011;9563;49.240;9.088;2023-04-25T18:35:47;5.13;;;2.25;;
18867;SDS011;9563;49.240;9.088;2023-04-25T18:38:14;7.72;;;2.30;;
18867;SDS011;9563;49.240;9.088;2023-04-25T18:40:41;7.45;;;2.90;;
18867;SDS011;9563;49.240;9.088;2023-04-25T18:43:08;5.20;;;2.67;;
18867;SDS011;9563;49.240;9.088;2023-04-25T18:45:35;11.00;;;3.07;;
18867;SDS011;9563;49.240;9.088;2023-04-25T18:48:04;8.70;;;2.45;;
18867;SDS011;9563;49.240;9.088;2023-04-25T18:50:31;6.53;;;2.83;;
18867;SDS011;9563;49.240;9.088;2023-04-25T18:52:58;11.38;;;2.65;;
18867;SDS011;9563;49.240;9.088;2023-04-25T18:55:26;4.33;;;2.30;;
18867;SDS011;9563;49.240;9.088;2023-04-25T18:57:54;8.33;;;2.87;;
18867;SDS011;9563;49.240;9.088;2023-04-25T19:00:21;9.37;;;2.83;;
18867;SDS011;9563;49.240;9.088;2023-04-25T19:02:48;7.70;;;2.53;;
18867;SDS011;9563;49.240;9.088;2023-04-25T19:05:17;8.63;;;3.20;;
18867;SDS011;9563;49.240;9.088;2023-04-25T19:07:44;3.40;;;1.92;;
18867;SDS011;9563;49.240;9.088;2023-04-25T19:10:11;13.97;;;3.40;;
18867;SDS011;9563;49.240;9.088;2023-04-25T19:12:38;5.70;;;2.43;;
18867;SDS011;9563;49.240;9.088;2023-04-25T19:15:05;9.60;;;2.77;;
18867;SDS011;9563;49.240;9.088;2023-04-25T19:17:33;6.53;;;2.30;;
18867;SDS011;9563;49.240;9.088;2023-04-25T19:20:01;5.13;;;2.20;;
18867;SDS011;9563;49.240;9.088;2023-04-25T19:22:29;11.95;;;3.70;;
18867;SDS011;9563;49.240;9.088;2023-04-25T19:24:56;25.53;;;7.73;;
18867;SDS011;9563;49.240;9.088;2023-04-25T19:27:23;12.17;;;2.90;;
18867;SDS011;9563;49.240;9.088;2023-04-25T19:29:51;10.13;;;3.13;;
18867;SDS011;9563;49.240;9.088;2023-04-25T19:32:24;10.30;;;3.13;;
18867;SDS011;9563;49.240;9.088;2023-04-25T19:34:51;7.33;;;3.33;;
18867;SDS011;9563;49.240;9.088;2023-04-25T19:37:19;5.97;;;3.10;;
18867;SDS011;9563;49.240;9.088;2023-04-25T19:39:47;8.77;;;3.60;;
18867;SDS011;9563;49.240;9.088;2023-04-25T19:42:14;9.60;;;3.23;;
18867;SDS011;9563;49.240;9.088;2023-04-25T19:44:43;8.30;;;3.27;;
18867;SDS011;9563;49.240;9.088;2023-04-25T19:47:10;9.53;;;3.83;;
18867;SDS011;9563;49.240;9.088;2023-04-25T19:49:36;6.73;;;3.40;;
18867;SDS011;9563;49.240;9.088;2023-04-25T19:52:03;11.40;;;4.40;;
18867;SDS011;9563;49.240;9.088;2023-04-25T19:54:31;11.60;;;5.33;;
18867;SDS011;9563;49.240;9.088;2023-04-25T19:56:59;15.37;;;5.57;;
18867;SDS011;9563;49.240;9.088;2023-04-25T19:59:27;15.77;;;6.77;;
18867;SDS011;9563;49.240;9.088;2023-04-25T20:01:54;18.87;;;6.30;;
18867;SDS011;9563;49.240;9.088;2023-04-25T20:04:21;15.77;;;6.87;;
18867;SDS011;9563;49.240;9.088;2023-04-25T20:06:48;13.27;;;6.13;;